Randolph, Maine
Current Conditions -  °F | °C
As of 6:53 AM on Thursday 27 Nov 2014 (Local Time) from KAUG Reporting Station
Light Snow Light Snow  
Wind Chill: 13°   Ceiling: 8000
Heat Index: 26°   Visibility: 7mi
Dew Point: 23°   Wind: 18mph
Humidity: 88%   Direction: 330°NNW
Pressure: 29.78"   Gusts: 29mph
Location:  44.23°N, 69.75°W
Report Text: KAUG 271153Z AUTO 33016G25KT 7SM -SN FEW015 BKN080 OVC100 M03/M05 A2978 RMK AO2 SLP090 P0000 60001 70067 T10331050 11017 21033 51014
Loading
Personal Weather Stations






























Interactive Weather Map New forecast layout! Learn more

10-Day Weather Forecast

Advertisements
Track Severe Weather on mobile